createdAt,value
2019-05-01T00:01:02.690Z,4.00
2019-05-01T00:03:43.593Z,3.90
2019-05-01T00:06:41.134Z,3.90
2019-05-01T00:09:18.142Z,3.90
2019-05-01T00:11:52.035Z,3.90
2019-05-01T00:14:22.616Z,3.80
2019-05-01T00:17:02.521Z,3.80
2019-05-01T00:19:37.219Z,3.80
2019-05-01T00:22:13.888Z,3.80
2019-05-01T00:24:48.073Z,3.60
2019-05-01T00:27:22.049Z,3.50
2019-05-01T00:29:56.106Z,3.40
2019-05-01T00:32:31.175Z,3.30
2019-05-01T00:35:01.174Z,3.40
2019-05-01T00:37:36.863Z,3.40
2019-05-01T00:40:09.923Z,3.40
2019-05-01T00:42:43.755Z,3.40
2019-05-01T00:45:17.575Z,3.40
2019-05-01T00:47:50.462Z,3.30
2019-05-01T00:50:25.093Z,3.40
2019-05-01T00:52:57.926Z,3.30
2019-05-01T00:55:45.075Z,3.20
2019-05-01T00:58:36.509Z,3.30
2019-05-01T01:01:37.879Z,3.30
2019-05-01T01:04:15.392Z,3.30
2019-05-01T01:06:47.615Z,3.30
2019-05-01T01:09:19.505Z,3.30
2019-05-01T01:11:54.799Z,3.20
2019-05-01T01:14:28.638Z,3.20
2019-05-01T01:17:02.951Z,3.30
2019-05-01T01:19:35.812Z,3.30
2019-05-01T01:22:08.702Z,3.30
2019-05-01T01:24:41.855Z,3.20
2019-05-01T01:27:17.256Z,3.10
2019-05-01T01:29:51.078Z,3.10
2019-05-01T01:32:23.967Z,3.00
2019-05-01T01:34:55.841Z,3.00
2019-05-01T01:37:29.194Z,3.00
2019-05-01T01:40:05.059Z,2.90
2019-05-01T01:42:38.405Z,2.90
2019-05-01T01:45:28.319Z,3.00
2019-05-01T01:48:12.224Z,3.00
2019-05-01T01:50:48.562Z,3.00
2019-05-01T01:53:25.540Z,3.00
2019-05-01T01:56:00.382Z,2.90
2019-05-01T01:58:33.706Z,2.90
2019-05-01T02:01:24.578Z,2.90
2019-05-01T02:04:04.516Z,2.80
2019-05-01T02:06:37.699Z,2.80
2019-05-01T02:09:11.907Z,2.80
2019-05-01T02:11:43.331Z,2.70
2019-05-01T02:14:13.575Z,2.70
2019-05-01T02:16:45.702Z,2.70
2019-05-01T02:19:20.431Z,2.70
2019-05-01T02:21:54.124Z,2.70
2019-05-01T02:24:27.488Z,2.60
2019-05-01T02:27:01.391Z,2.50
2019-05-01T02:29:40.877Z,2.50
2019-05-01T02:32:11.003Z,2.40
2019-05-01T02:34:45.375Z,2.40
2019-05-01T02:37:19.452Z,2.40
2019-05-01T02:39:53.887Z,2.50
2019-05-01T02:42:29.829Z,2.50
2019-05-01T02:45:04.957Z,2.60
2019-05-01T02:47:36.843Z,2.60
2019-05-01T02:50:13.481Z,2.60
2019-05-01T02:52:46.693Z,2.60
2019-05-01T02:55:32.831Z,2.70
2019-05-01T02:58:05.413Z,2.70
2019-05-01T03:00:40.553Z,2.80
2019-05-01T03:03:14.991Z,2.90
2019-05-01T03:05:47.768Z,2.90
2019-05-01T03:08:20.428Z,2.80
2019-05-01T03:10:55.533Z,2.80
2019-05-01T03:13:29.986Z,2.80
2019-05-01T03:16:02.528Z,2.90
2019-05-01T03:18:41.415Z,2.90
2019-05-01T03:21:47.046Z,3.00
2019-05-01T03:24:26.601Z,3.00
2019-05-01T03:27:00.896Z,3.00
2019-05-01T03:29:34.600Z,3.10
2019-05-01T03:32:19.023Z,3.10
2019-05-01T03:34:54.880Z,3.10
2019-05-01T03:37:27.212Z,3.10
2019-05-01T03:40:02.001Z,3.20
2019-05-01T03:42:34.787Z,3.30
2019-05-01T03:45:04.634Z,3.50
2019-05-01T03:47:35.521Z,3.60
2019-05-01T03:50:05.473Z,3.60
2019-05-01T03:52:35.805Z,3.70
2019-05-01T03:55:08.236Z,3.70
2019-05-01T03:57:42.000Z,3.80
2019-05-01T04:00:16.292Z,3.90
2019-05-01T04:03:31.275Z,4.10
2019-05-01T04:06:06.727Z,4.20
2019-05-01T04:08:40.848Z,4.40
2019-05-01T04:11:14.356Z,4.60
2019-05-01T04:13:50.822Z,4.70
2019-05-01T04:16:26.054Z,4.90
2019-05-01T04:19:01.968Z,5.00
2019-05-01T04:21:39.129Z,5.30
2019-05-01T04:24:15.241Z,5.60
2019-05-01T04:26:50.469Z,5.90
2019-05-01T04:29:31.522Z,6.20
2019-05-01T04:32:20.899Z,6.50
2019-05-01T04:35:19.530Z,6.80
2019-05-01T04:37:54.981Z,7.20
2019-05-01T04:40:28.481Z,7.40
2019-05-01T04:43:02.371Z,7.60
2019-05-01T04:45:37.893Z,7.80
2019-05-01T04:48:11.147Z,7.90
2019-05-01T04:50:45.224Z,8.10
2019-05-01T04:53:20.319Z,8.20
2019-05-01T04:55:56.194Z,8.20
2019-05-01T04:58:30.342Z,8.30
2019-05-01T05:01:03.507Z,8.40
2019-05-01T05:03:35.322Z,8.50
2019-05-01T05:06:06.726Z,8.60
2019-05-01T05:08:40.703Z,8.70
2019-05-01T05:11:17.859Z,8.80
2019-05-01T05:14:12.803Z,9.00
2019-05-01T05:16:51.592Z,9.20
2019-05-01T05:19:24.298Z,9.30
2019-05-01T05:21:59.103Z,9.50
2019-05-01T05:24:33.136Z,9.60
2019-05-01T05:27:09.130Z,9.80
2019-05-01T05:29:47.648Z,10.10
2019-05-01T05:32:24.960Z,10.30
2019-05-01T05:35:00.139Z,10.40
2019-05-01T05:37:40.475Z,10.50
2019-05-01T05:40:12.551Z,10.50
2019-05-01T05:42:47.327Z,10.60
2019-05-01T05:45:21.231Z,10.70
2019-05-01T05:47:57.891Z,10.60
2019-05-01T05:50:37.151Z,10.60
2019-05-01T05:53:14.731Z,10.60
2019-05-01T05:55:51.865Z,10.60
2019-05-01T05:58:48.423Z,10.70
2019-05-01T06:01:37.342Z,10.70
2019-05-01T06:04:28.563Z,10.70
2019-05-01T06:07:22.204Z,10.80
2019-05-01T06:10:10.369Z,10.80
2019-05-01T06:12:54.757Z,10.80
2019-05-01T06:15:43.718Z,10.90
2019-05-01T06:18:22.783Z,10.90
2019-05-01T06:21:25.485Z,10.90
2019-05-01T06:24:15.003Z,11.00
2019-05-01T06:26:49.005Z,11.00
2019-05-01T06:29:25.069Z,11.00
2019-05-01T06:32:00.041Z,11.00
2019-05-01T06:34:32.014Z,11.00
2019-05-01T06:37:07.172Z,11.00
2019-05-01T06:39:48.045Z,11.00
2019-05-01T06:42:18.179Z,10.90
2019-05-01T06:45:01.348Z,10.90
2019-05-01T06:47:57.320Z,10.90
2019-05-01T06:50:41.671Z,10.80
2019-05-01T06:53:11.361Z,10.80
2019-05-01T06:55:47.330Z,10.80
2019-05-01T06:58:24.109Z,10.70
2019-05-01T07:00:56.390Z,10.70
2019-05-01T07:03:30.113Z,10.70
2019-05-01T07:06:13.986Z,10.80
2019-05-01T07:08:41.000Z,10.90
2019-05-01T07:11:15.449Z,11.00
2019-05-01T07:13:55.870Z,11.00
2019-05-01T07:16:26.598Z,11.20
2019-05-01T07:19:05.855Z,11.30
2019-05-01T07:21:40.255Z,11.40
2019-05-01T07:24:13.295Z,11.60
2019-05-01T07:26:47.973Z,11.80
2019-05-01T07:29:23.590Z,11.90
2019-05-01T07:31:55.977Z,12.00
2019-05-01T07:34:29.791Z,12.00
2019-05-01T07:37:03.428Z,11.90
2019-05-01T07:39:38.278Z,11.90
2019-05-01T07:42:29.798Z,11.80
2019-05-01T07:45:26.529Z,11.80
2019-05-01T07:48:00.899Z,11.90
2019-05-01T07:50:36.847Z,11.90
2019-05-01T07:53:10.859Z,11.90
2019-05-01T07:55:42.382Z,12.00
2019-05-01T07:58:15.809Z,12.00
2019-05-01T08:01:02.891Z,12.00
2019-05-01T08:03:37.979Z,12.00
2019-05-01T08:06:09.771Z,12.10
2019-05-01T08:08:42.721Z,12.00
2019-05-01T08:11:15.967Z,12.00
2019-05-01T08:13:50.592Z,11.80
2019-05-01T08:16:24.851Z,11.70
2019-05-01T08:19:06.724Z,11.70
2019-05-01T08:21:56.999Z,11.70
2019-05-01T08:24:29.094Z,11.60
2019-05-01T08:27:01.727Z,11.60
2019-05-01T08:29:56.684Z,11.60
2019-05-01T08:32:47.940Z,11.50
2019-05-01T08:35:24.210Z,11.60
2019-05-01T08:38:00.345Z,11.80
2019-05-01T08:40:32.734Z,12.00
2019-05-01T08:43:06.275Z,12.20
2019-05-01T08:46:04.562Z,12.30
2019-05-01T08:48:42.864Z,12.40
2019-05-01T08:51:16.639Z,12.40
2019-05-01T08:53:52.852Z,12.40
2019-05-01T08:56:24.678Z,12.10
2019-05-01T08:58:54.034Z,11.90
2019-05-01T09:01:24.728Z,11.90
2019-05-01T09:04:11.821Z,11.70
2019-05-01T09:06:34.749Z,11.70
2019-05-01T09:09:09.996Z,11.60
2019-05-01T09:11:44.319Z,11.50
2019-05-01T09:14:15.252Z,11.20
2019-05-01T09:16:45.994Z,11.00
2019-05-01T09:19:17.973Z,10.90
2019-05-01T09:21:51.786Z,10.80
2019-05-01T09:24:27.884Z,10.70
2019-05-01T09:27:24.217Z,10.60
2019-05-01T09:29:57.322Z,10.70
2019-05-01T09:32:30.343Z,10.80
2019-05-01T09:35:14.562Z,10.90
2019-05-01T09:37:37.345Z,10.90
2019-05-01T09:40:10.514Z,10.90
2019-05-01T09:42:43.743Z,11.10
2019-05-01T09:45:18.915Z,11.20
2019-05-01T09:47:53.240Z,11.30
2019-05-01T09:50:30.504Z,11.50
2019-05-01T09:53:19.663Z,11.60
2019-05-01T09:55:58.847Z,11.80
2019-05-01T09:58:31.171Z,11.90
2019-05-01T10:01:02.163Z,12.00
2019-05-01T10:03:35.186Z,12.20
2019-05-01T10:06:07.661Z,12.40
2019-05-01T10:08:41.936Z,12.60
2019-05-01T10:11:17.519Z,12.60
2019-05-01T10:13:49.139Z,12.60
2019-05-01T10:16:24.062Z,12.50
2019-05-01T10:19:02.505Z,12.50
2019-05-01T10:21:34.406Z,12.30
2019-05-01T10:24:08.255Z,12.20
2019-05-01T10:26:42.918Z,12.10
2019-05-01T10:29:32.034Z,12.20
2019-05-01T10:32:32.810Z,12.20
2019-05-01T10:35:24.807Z,12.20
2019-05-01T10:37:55.423Z,12.30
2019-05-01T10:40:32.454Z,12.30
2019-05-01T10:43:00.879Z,12.30
2019-05-01T10:45:30.741Z,12.20
2019-05-01T10:48:03.568Z,12.00
2019-05-01T10:50:36.043Z,11.80
2019-05-01T10:53:09.055Z,11.70
2019-05-01T10:55:42.242Z,11.50
2019-05-01T10:58:18.241Z,11.40
2019-05-01T11:00:49.112Z,11.40
2019-05-01T11:03:18.820Z,11.40
2019-05-01T11:05:56.095Z,11.60
2019-05-01T11:08:27.959Z,11.80
2019-05-01T11:10:59.001Z,12.00
2019-05-01T11:13:32.255Z,12.20
2019-05-01T11:16:05.350Z,12.40
2019-05-01T11:18:40.203Z,12.70
2019-05-01T11:21:10.986Z,13.00
2019-05-01T11:23:45.026Z,13.00
2019-05-01T11:26:18.687Z,13.00
2019-05-01T11:28:53.099Z,13.30
2019-05-01T11:31:32.957Z,13.40
2019-05-01T11:34:44.495Z,13.60
2019-05-01T11:37:54.973Z,13.60
2019-05-01T11:40:35.770Z,13.80
2019-05-01T11:43:10.565Z,13.90
2019-05-01T11:45:43.867Z,13.90
2019-05-01T11:48:18.687Z,14.00
2019-05-01T11:50:55.682Z,14.00
2019-05-01T11:53:28.991Z,14.00
2019-05-01T11:55:59.182Z,14.30
2019-05-01T11:58:29.424Z,14.50
2019-05-01T12:01:02.546Z,14.70
2019-05-01T12:03:32.864Z,14.90
2019-05-01T12:06:02.954Z,14.90
2019-05-01T12:08:33.194Z,15.00
2019-05-01T12:11:09.195Z,14.90
2019-05-01T12:13:44.137Z,14.80
2019-05-01T12:16:23.712Z,14.70
2019-05-01T12:18:57.535Z,14.70
2019-05-01T12:21:34.736Z,14.80
2019-05-01T12:24:09.564Z,14.70
2019-05-01T12:26:43.114Z,14.60
2019-05-01T12:29:17.666Z,14.60
2019-05-01T12:31:51.624Z,14.60
2019-05-01T12:34:24.689Z,14.60
2019-05-01T12:37:16.579Z,14.60
2019-05-01T12:39:49.782Z,14.50
2019-05-01T12:42:24.455Z,14.50
2019-05-01T12:44:58.219Z,14.60
2019-05-01T12:47:52.314Z,14.80
2019-05-01T12:50:26.355Z,15.00
2019-05-01T12:53:22.607Z,15.20
2019-05-01T12:56:16.298Z,15.40
2019-05-01T12:58:56.008Z,15.60
2019-05-01T13:01:30.189Z,15.70
2019-05-01T13:04:04.318Z,15.70
2019-05-01T13:06:48.824Z,15.50
2019-05-01T13:09:12.065Z,15.30
2019-05-01T13:11:44.589Z,15.10
2019-05-01T13:14:17.584Z,14.80
2019-05-01T13:16:51.240Z,14.60
2019-05-01T13:19:24.663Z,14.50
2019-05-01T13:21:54.662Z,14.30
2019-05-01T13:24:25.968Z,14.30
2019-05-01T13:27:02.132Z,14.20
2019-05-01T13:29:40.927Z,14.10
2019-05-01T13:32:31.894Z,14.00
2019-05-01T13:35:02.119Z,13.90
2019-05-01T13:37:34.446Z,13.90
2019-05-01T13:40:07.314Z,13.80
2019-05-01T13:42:43.945Z,13.80
2019-05-01T13:45:16.648Z,13.70
2019-05-01T13:47:46.887Z,13.60
2019-05-01T13:50:16.637Z,13.60
2019-05-01T13:52:49.858Z,13.50
2019-05-01T13:55:20.984Z,13.50
2019-05-01T13:57:50.709Z,13.50
2019-05-01T14:00:21.993Z,13.50
2019-05-01T14:02:51.694Z,13.50
2019-05-01T14:05:23.935Z,13.40
2019-05-01T14:07:56.258Z,13.20
2019-05-01T14:10:27.782Z,13.20
2019-05-01T14:12:57.799Z,13.10
2019-05-01T14:15:28.191Z,13.00
2019-05-01T14:18:01.350Z,12.90
2019-05-01T14:20:46.157Z,12.80
2019-05-01T14:23:39.039Z,12.70
2019-05-01T14:26:13.823Z,12.70
2019-05-01T14:28:46.532Z,12.60
2019-05-01T14:31:20.648Z,12.40
2019-05-01T14:33:53.638Z,12.20
2019-05-01T14:36:26.334Z,12.10
2019-05-01T14:39:00.990Z,11.90
2019-05-01T14:41:35.367Z,11.80
2019-05-01T14:44:08.935Z,11.60
2019-05-01T14:46:41.345Z,11.50
2019-05-01T14:49:14.750Z,11.40
2019-05-01T14:51:47.887Z,11.30
2019-05-01T14:54:20.990Z,11.20
2019-05-01T14:56:54.749Z,11.10
2019-05-01T14:59:28.588Z,11.00
2019-05-01T15:01:59.642Z,10.80
2019-05-01T15:04:31.960Z,10.70
2019-05-01T15:07:05.215Z,10.60
2019-05-01T15:09:38.178Z,10.50
2019-05-01T15:12:11.998Z,10.50
2019-05-01T15:14:54.063Z,10.50
2019-05-01T15:17:41.011Z,10.50
2019-05-01T15:20:14.825Z,10.40
2019-05-01T15:22:47.945Z,10.30
2019-05-01T15:25:20.487Z,10.20
2019-05-01T15:27:49.933Z,10.20
2019-05-01T15:30:21.187Z,10.10
2019-05-01T15:32:53.411Z,10.00
2019-05-01T15:35:26.752Z,10.00
2019-05-01T15:38:03.142Z,9.90
2019-05-01T15:40:45.733Z,10.00
2019-05-01T15:43:37.091Z,9.90
2019-05-01T15:46:09.341Z,9.80
2019-05-01T15:48:43.365Z,9.80
2019-05-01T15:51:17.407Z,9.70
2019-05-01T15:53:50.651Z,9.70
2019-05-01T15:56:23.919Z,9.70
2019-05-01T15:59:00.415Z,9.70
2019-05-01T16:01:37.950Z,9.70
2019-05-01T16:04:11.165Z,9.80
2019-05-01T16:06:48.161Z,9.70
2019-05-01T16:09:26.141Z,9.70
2019-05-01T16:12:18.021Z,9.70
2019-05-01T16:14:53.659Z,9.70
2019-05-01T16:17:28.255Z,9.70
2019-05-01T16:19:58.724Z,9.60
2019-05-01T16:22:29.278Z,9.50
2019-05-01T16:24:59.648Z,9.50
2019-05-01T16:27:29.625Z,9.50
2019-05-01T16:30:02.276Z,9.50
2019-05-01T16:32:37.479Z,9.60
2019-05-01T16:35:11.330Z,9.60
2019-05-01T16:37:45.998Z,9.60
2019-05-01T16:40:30.606Z,9.70
2019-05-01T16:43:03.623Z,9.70
2019-05-01T16:45:35.536Z,9.80
2019-05-01T16:48:08.199Z,9.80
2019-05-01T16:50:42.237Z,9.80
2019-05-01T16:53:15.649Z,9.70
2019-05-01T16:55:50.731Z,9.60
2019-05-01T16:58:24.043Z,9.70
2019-05-01T17:01:01.443Z,9.60
2019-05-01T17:03:52.574Z,9.60
2019-05-01T17:06:37.121Z,9.60
2019-05-01T17:09:26.952Z,9.50
2019-05-01T17:12:02.555Z,9.50
2019-05-01T17:14:35.198Z,9.40
2019-05-01T17:17:09.450Z,9.40
2019-05-01T17:19:42.408Z,9.40
2019-05-01T17:22:16.189Z,9.30
2019-05-01T17:24:50.060Z,9.20
2019-05-01T17:27:23.750Z,9.10
2019-05-01T17:29:56.991Z,9.00
2019-05-01T17:32:30.302Z,9.00
2019-05-01T17:35:01.932Z,8.90
2019-05-01T17:37:35.631Z,8.80
2019-05-01T17:40:08.225Z,8.80
2019-05-01T17:42:41.086Z,8.70
2019-05-01T17:45:15.963Z,8.60
2019-05-01T17:47:52.801Z,8.60
2019-05-01T17:50:27.564Z,8.60
2019-05-01T17:53:00.863Z,8.50
2019-05-01T17:55:34.576Z,8.50
2019-05-01T17:58:09.372Z,8.50
2019-05-01T18:00:59.074Z,8.50
2019-05-01T18:03:48.575Z,8.50
2019-05-01T18:06:28.769Z,8.50
2019-05-01T18:09:03.659Z,8.50
2019-05-01T18:11:35.093Z,8.50
2019-05-01T18:14:05.828Z,8.40
2019-05-01T18:16:36.387Z,8.40
2019-05-01T18:19:09.829Z,8.30
2019-05-01T18:21:46.600Z,8.40
2019-05-01T18:24:35.511Z,8.40
2019-05-01T18:27:42.438Z,8.40
2019-05-01T18:30:15.911Z,8.40
2019-05-01T18:32:52.521Z,8.40
2019-05-01T18:35:26.435Z,8.30
2019-05-01T18:38:15.750Z,8.30
2019-05-01T18:40:53.629Z,8.30
2019-05-01T18:43:31.799Z,8.30
2019-05-01T18:46:01.989Z,8.20
2019-05-01T18:48:36.990Z,8.20
2019-05-01T18:51:11.006Z,8.20
2019-05-01T18:53:42.990Z,8.20
2019-05-01T18:56:14.333Z,8.20
2019-05-01T18:58:43.950Z,8.20
2019-05-01T19:01:17.214Z,8.20
2019-05-01T19:03:47.893Z,8.10
2019-05-01T19:06:18.096Z,8.10
2019-05-01T19:08:52.579Z,8.10
2019-05-01T19:11:25.999Z,8.10
2019-05-01T19:13:59.801Z,8.10
2019-05-01T19:16:32.290Z,8.00
2019-05-01T19:19:05.190Z,7.90
2019-05-01T19:21:41.815Z,7.90
2019-05-01T19:24:16.215Z,7.80
2019-05-01T19:26:52.516Z,7.80
2019-05-01T19:29:26.619Z,7.70
2019-05-01T19:31:58.281Z,7.70
2019-05-01T19:34:28.328Z,7.60
2019-05-01T19:37:00.209Z,7.50
2019-05-01T19:39:43.090Z,7.50
2019-05-01T19:42:07.977Z,7.40
2019-05-01T19:44:40.163Z,7.30
2019-05-01T19:47:17.200Z,7.30
2019-05-01T19:49:54.195Z,7.20
2019-05-01T19:52:32.458Z,7.10
2019-05-01T19:55:06.448Z,7.10
2019-05-01T19:57:40.658Z,7.00
2019-05-01T20:00:14.974Z,7.00
2019-05-01T20:02:54.195Z,6.90
2019-05-01T20:05:27.139Z,6.90
2019-05-01T20:08:01.764Z,6.90
2019-05-01T20:10:37.511Z,6.80
2019-05-01T20:13:12.252Z,6.70
2019-05-01T20:15:40.389Z,6.60
2019-05-01T20:18:10.586Z,6.60
2019-05-01T20:20:42.051Z,6.60
2019-05-01T20:23:15.805Z,6.50
2019-05-01T20:25:50.980Z,6.40
2019-05-01T20:28:25.923Z,6.30
2019-05-01T20:30:59.167Z,6.30
2019-05-01T20:33:33.194Z,6.20
2019-05-01T20:36:05.124Z,6.20
2019-05-01T20:38:38.054Z,6.10
2019-05-01T20:41:10.140Z,6.10
2019-05-01T20:43:43.333Z,6.00
2019-05-01T20:46:13.862Z,5.90
2019-05-01T20:48:45.022Z,5.80
2019-05-01T20:51:20.184Z,5.90
2019-05-01T20:53:55.031Z,5.80
2019-05-01T20:56:55.838Z,5.90
2019-05-01T20:59:29.666Z,5.90
2019-05-01T21:02:07.597Z,5.90
2019-05-01T21:04:58.879Z,5.90
2019-05-01T21:07:45.726Z,5.80
2019-05-01T21:10:24.969Z,5.80
2019-05-01T21:12:54.881Z,5.80
2019-05-01T21:15:30.882Z,5.80
2019-05-01T21:18:06.174Z,5.80
2019-05-01T21:20:39.775Z,5.80
2019-05-01T21:23:14.526Z,5.80
2019-05-01T21:25:48.068Z,5.80
2019-05-01T21:28:21.542Z,5.70
2019-05-01T21:30:54.848Z,5.70
2019-05-01T21:33:28.670Z,5.60
2019-05-01T21:36:04.929Z,5.60
2019-05-01T21:38:36.608Z,5.60
2019-05-01T21:41:10.207Z,5.60
2019-05-01T21:43:43.591Z,5.60
2019-05-01T21:46:17.510Z,5.60
2019-05-01T21:48:53.458Z,5.60
2019-05-01T21:51:26.879Z,5.60
2019-05-01T21:54:03.254Z,5.60
2019-05-01T21:56:36.924Z,5.70
2019-05-01T21:59:12.127Z,5.70
2019-05-01T22:01:45.644Z,5.70
2019-05-01T22:04:17.899Z,5.70
2019-05-01T22:06:53.802Z,5.70
2019-05-01T22:09:28.639Z,5.70
2019-05-01T22:12:01.951Z,5.70
2019-05-01T22:14:52.771Z,5.70
2019-05-01T22:17:44.875Z,5.80
2019-05-01T22:20:19.882Z,5.80
2019-05-01T22:22:55.150Z,5.80
2019-05-01T22:25:36.490Z,5.80
2019-05-01T22:28:29.476Z,5.80
2019-05-01T22:31:21.722Z,5.80
2019-05-01T22:33:57.615Z,5.90
2019-05-01T22:36:38.081Z,5.90
2019-05-01T22:39:10.622Z,5.90
2019-05-01T22:41:43.743Z,6.00
2019-05-01T22:44:17.905Z,5.90
2019-05-01T22:46:52.449Z,5.90
2019-05-01T22:49:26.623Z,6.00
2019-05-01T22:52:00.356Z,6.00
2019-05-01T22:54:36.063Z,6.00
2019-05-01T22:57:08.798Z,6.00
2019-05-01T22:59:42.238Z,6.00
2019-05-01T23:02:30.143Z,6.00
2019-05-01T23:05:01.896Z,6.10
2019-05-01T23:07:34.111Z,6.10
2019-05-01T23:10:06.820Z,6.00
2019-05-01T23:12:39.683Z,6.10
2019-05-01T23:15:17.232Z,6.10
2019-05-01T23:17:49.928Z,6.10
2019-05-01T23:20:20.718Z,6.10
2019-05-01T23:22:53.899Z,6.10
2019-05-01T23:25:25.264Z,6.10
2019-05-01T23:27:59.627Z,6.20
2019-05-01T23:30:33.439Z,6.20
2019-05-01T23:33:06.402Z,6.30
2019-05-01T23:35:40.096Z,6.30
2019-05-01T23:38:14.630Z,6.30
2019-05-01T23:40:50.939Z,6.40
2019-05-01T23:43:27.854Z,6.40
2019-05-01T23:45:59.823Z,6.40
2019-05-01T23:48:31.947Z,6.40
2019-05-01T23:51:03.777Z,6.40
2019-05-01T23:53:36.899Z,6.30
2019-05-01T23:56:10.078Z,6.20
2019-05-01T23:58:43.394Z,6.20
